Main page
METAR-TAF:

Airports :

Belgrade, Serbia

Belgrade Nikola Tesla Airport

latitude: 44-49N, longitude: 020-17E, elevation: 96 m

Current weather observation

The report was made 16 minutes ago, at 08:00 UTC
Wind 3 kt from the West/Northwest, varying between West/Southwest and North/Northwest
Temperature 18°C
Humidity 64%
Pressure 1021 hPa
Visibility: 7000 m

METAR: LYBE 300800Z 29003KT 250V340 7000 NSC 18/11 Q1021 NOSIG

Time: 10:16 (08:16 UTC)

Forecast

The report was made 3 hours and 16 minutes ago, at 05:00 UTC
Forecast valid from 30 at 06 UTC to 01 at 06 UTC
Wind 5 kt from the South
Visibility 10 km or more
no clouds below 1500 m and no cumulonimbus
Temporary
from 01 at 03 UTC to 01 at 05 UTC
Visibility: 3000 m
mist

TAF: LYBE 300500Z 3006/0106 18005KT CAVOK TX25/3013Z TN10/0104Z TEMPO 0103/0105 3000 BR

METAR-TAF

Weather observations and forecasts of more than 4000 airports (METAR and TAF reports).

The available stations are represented by yellow and red dots on the map.

Hover mouse over dot to see the name of the station.

Then click to see weather observations and forecasts.

To change the map : click on the green buttons with a black cross to zoom in, on the green button with a dash to zoom out, or on the green arrows for adjacent maps.


METAR-TAF: